KBNW/BNW METAR and TAF weather

Enter ICAO airport designator
Station Type Date Time Source
KBNW METAR 2021/04/18 01:55 UTC NOAA

KBNW 180155Z AUTO 33012KT 10SM FEW110 11/00 A3000 RMK AO2


Station Type Date Time Source
KBNW Decoded METAR 2021/04/18 01:55 UTC NOAA

Boone Municipal, IA, United States (KBNW) 42-03N 093-51W
Apr 17, 2021 - 09:55 PM EDT / 2021.04.18 0155 UTC
Wind: from the NNW (330 degrees) at 14 MPH (12 KT):0
Visibility: 10 mile(s):0
Sky conditions: mostly clear
Temperature: 51 F (11 C)
Dew Point: 32 F (0 C)
Relative Humidity: 46%
Pressure (altimeter): 30 in. Hg (1015 hPa)
ob: KBNW 180155Z AUTO 33012KT 10SM FEW110 11/00 A3000 RMK AO2
cycle: 2

Station Type Date Time Source
KBNW TAF UTC NOAA

Error!

Example: see airport list